KBAF

Westfield-Barnes Regional Airport

Westfield/Springfield, Massachusetts, USA
METAR KBAF 131053Z AUTO 01007KT 10SM SCT120 M07/M14 A3043 RMK AO2 SLP314 T10671139
Observed Flight Rules
Dec-13 @ 10:53 UTC (53 minutes ago) Visual Flight Rules
Wind Visibility Clouds
10° at 7 knots 10 miles
  • Scattered at 12,000' AGL
Temperatures Readings
Current -7°C / 19°F
Dewpoint -14°C / 7°F
Humidity 58%
Altimeter 30.43" Hg
Pressure 1031.4 hPa
Elevation 83
METAR KBAF 131053Z AUTO 01007KT 10SM SCT120 M07/M14 A3043 RMK AO2 SLP314 T10671139
Observed Flight Rules
Dec-13 @ 10:53 UTC
(53 minutes ago)
VFR
Wind Visibility
10° at 7 knots 10 miles
Clouds
  • Scattered at 12,000' AGL
Temperature Dewpoint
-7°C / 19°F -14°C / 7°F
Humidity Altimeter Pressure
58% 30.43" Hg 1031.4 hPa